Time;durP1;ratioP1;P1;durP2;ratioP2;P2;SDS_P1;SDS_P2;PMS_P1;PMS_P2;Temp;Humidity;BMP_temperature;BMP_pressure;BME280_temperature;BME280_humidity;BME280_pressure;Samples;Min_cycle;Max_cycle;Signal;HPM_P1;HPM_P2
2022/11/16 00:02:27;;;;;;;10.95;5.22;;;15.90;72.70;;;;;;6327125;28;20497;-66
2022/11/16 00:05:27;;;;;;;9.68;4.57;;;15.90;73.30;;;;;;6327169;28;20050;-65
2022/11/16 00:09:20;;;;;;;8.77;3.67;;;15.90;73.80;;;;;;6326252;28;20364;-65
2022/11/16 00:12:11;;;;;;;2.60;1.45;;;15.90;74.00;;;;;;6326806;28;20028;-65
2022/11/16 00:15:12;;;;;;;2.67;1.60;;;16.00;73.90;;;;;;6308816;28;20035;-65
2022/11/16 00:18:13;;;;;;;6.03;3.03;;;16.00;73.80;;;;;;6326178;28;20070;-66
2022/11/16 00:21:14;;;;;;;9.27;3.33;;;16.10;73.70;;;;;;6325161;28;20368;-65
2022/11/16 00:24:17;;;;;;;7.93;3.95;;;16.10;73.50;;;;;;6322296;28;20032;-66
2022/11/16 00:27:17;;;;;;;10.82;4.55;;;16.20;73.40;;;;;;6301142;28;20115;-66
2022/11/16 00:30:18;;;;;;;5.95;3.58;;;16.20;73.20;;;;;;6320003;28;20028;-66
2022/11/16 00:33:19;;;;;;;5.43;3.65;;;16.20;72.90;;;;;;6324152;28;20035;-66
2022/11/16 00:36:20;;;;;;;11.52;3.15;;;16.20;72.80;;;;;;6324311;28;20016;-66
2022/11/16 00:39:21;;;;;;;9.20;3.65;;;16.20;72.60;;;;;;6322618;28;20093;-64
2022/11/16 00:42:22;;;;;;;6.47;3.15;;;16.30;72.60;;;;;;6323398;28;20031;-66
2022/11/16 00:45:24;;;;;;;6.88;2.97;;;16.30;72.40;;;;;;6308347;28;20038;-65
2022/11/16 00:48:25;;;;;;;4.82;2.80;;;16.30;72.20;;;;;;6324889;28;20369;-65
2022/11/16 00:51:26;;;;;;;7.07;2.95;;;16.40;72.00;;;;;;6324508;28;20032;-65
2022/11/16 00:54:27;;;;;;;8.23;2.50;;;16.40;71.80;;;;;;6324413;28;20043;-65
2022/11/16 00:57:28;;;;;;;7.75;2.72;;;16.40;71.90;;;;;;6325959;28;20040;-65
2022/11/16 01:00:29;;;;;;;6.57;2.42;;;16.40;71.80;;;;;;6324545;28;20031;-65
2022/11/16 01:03:30;;;;;;;4.72;2.47;;;16.40;71.80;;;;;;6324866;28;20027;-65
2022/11/16 01:06:31;;;;;;;5.32;2.15;;;16.40;71.70;;;;;;6323764;28;20450;-66
2022/11/16 01:09:34;;;;;;;5.85;2.40;;;16.40;71.60;;;;;;6325066;28;20472;-66
2022/11/16 01:12:35;;;;;;;6.35;2.30;;;16.50;71.50;;;;;;6324887;28;20031;-65
2022/11/16 01:15:35;;;;;;;3.33;2.00;;;16.40;71.40;;;;;;6324824;28;20099;-65
2022/11/16 01:18:37;;;;;;;4.93;2.35;;;16.40;71.50;;;;;;6306997;28;20420;-65
2022/11/16 01:21:38;;;;;;;3.83;2.42;;;16.40;71.50;;;;;;6323677;28;20032;-65
2022/11/16 01:24:39;;;;;;;5.85;2.10;;;16.40;71.50;;;;;;6323419;28;20039;-65
2022/11/16 01:27:40;;;;;;;5.72;2.38;;;16.40;71.40;;;;;;6324078;28;20453;-65
2022/11/16 01:30:48;;;;;;;9.15;2.47;;;16.40;71.40;;;;;;6323922;28;20067;-65
2022/11/16 01:33:48;;;;;;;6.35;1.95;;;16.40;71.40;;;;;;6324769;28;20028;-65
2022/11/16 01:36:58;;;;;;;3.53;2.13;;;16.50;71.40;;;;;;6323603;28;20388;-66
2022/11/16 01:40:04;;;;;;;3.05;1.75;;;16.50;71.30;;;;;;6323070;28;20113;-65
2022/11/16 01:43:20;;;;;;;3.70;2.10;;;16.50;71.20;;;;;;6323388;28;20016;-66
2022/11/16 01:46:23;;;;;;;3.22;2.03;;;16.50;71.10;;;;;;6323601;28;20024;-66
2022/11/16 01:49:29;;;;;;;5.85;2.40;;;16.40;71.10;;;;;;6323357;28;20032;-66
2022/11/16 01:52:34;;;;;;;2.78;1.75;;;16.40;71.30;;;;;;6323497;28;20031;-66
2022/11/16 01:55:37;;;;;;;3.63;2.33;;;16.40;71.40;;;;;;6321715;28;20070;-65
2022/11/16 01:59:01;;;;;;;3.88;2.40;;;16.40;71.50;;;;;;6283494;28;20044;-65
2022/11/16 02:02:04;;;;;;;4.63;2.53;;;16.40;71.60;;;;;;6296808;28;20115;-65
2022/11/16 02:05:08;;;;;;;4.18;2.33;;;16.30;71.40;;;;;;6260718;28;20531;-65
2022/11/16 02:12:23;;;;;;;2.80;1.63;;;16.40;71.60;;;;;;6279879;28;20028;-65
2022/11/16 02:15:37;;;;;;;3.28;2.17;;;16.40;71.30;;;;;;6279934;28;20105;-65
2022/11/16 02:19:00;;;;;;;2.90;1.92;;;16.40;71.40;;;;;;6263875;28;20036;-65
2022/11/16 02:22:23;;;;;;;5.75;2.22;;;16.40;71.40;;;;;;6262668;28;20422;-65
2022/11/16 02:25:45;;;;;;;4.07;2.53;;;16.40;71.40;;;;;;6278043;28;20097;-65
2022/11/16 02:29:27;;;;;;;4.13;2.22;;;16.40;72.20;;;;;;6279178;28;20513;-64
2022/11/16 02:32:54;;;;;;;2.88;1.70;;;16.40;71.30;;;;;;6279691;28;20044;-64
2022/11/16 02:36:00;;;;;;;4.60;1.77;;;16.40;71.30;;;;;;6205455;28;20098;-65
2022/11/16 02:39:06;;;;;;;3.72;1.55;;;16.40;71.20;;;;;;6188609;28;20037;-65
2022/11/16 02:42:13;;;;;;;4.05;2.05;;;16.30;71.20;;;;;;6205936;28;20459;-65
2022/11/16 02:45:20;;;;;;;3.58;1.40;;;16.30;71.20;;;;;;6189746;28;20022;-65
2022/11/16 02:48:29;;;;;;;2.53;1.25;;;16.30;71.20;;;;;;6204053;28;20034;-65
2022/11/16 02:51:33;;;;;;;6.30;1.27;;;16.30;71.10;;;;;;6205552;28;20125;-65
2022/11/16 02:54:34;;;;;;;4.88;1.60;;;16.30;71.00;;;;;;6203731;28;20074;-65
2022/11/16 02:57:44;;;;;;;3.53;1.52;;;16.20;71.00;;;;;;6205430;28;20041;-65
2022/11/16 03:00:54;;;;;;;4.38;2.33;;;16.10;71.20;;;;;;6205326;28;20112;-65
2022/11/16 03:04:05;;;;;;;4.00;2.33;;;16.10;71.50;;;;;;6205913;28;20043;-65
2022/11/16 03:07:09;;;;;;;7.28;3.05;;;16.00;71.70;;;;;;6225473;28;20590;-65
2022/11/16 03:11:58;;;;;;;4.15;2.17;;;16.00;71.90;;;;;;6209859;28;20121;-65
2022/11/16 03:13:34;;;;;;;2.67;1.70;;;16.00;72.00;;;;;;6290448;28;20041;-65
2022/11/16 03:16:39;;;;;;;3.10;1.50;;;15.90;71.90;;;;;;6326814;28;20119;-66
2022/11/16 03:19:42;;;;;;;2.45;1.42;;;16.00;72.00;;;;;;6326717;28;20024;-65
2022/11/16 03:22:49;;;;;;;3.20;1.60;;;15.90;71.90;;;;;;6325945;28;20020;-65
2022/11/16 03:25:55;;;;;;;2.70;1.65;;;15.90;71.90;;;;;;6309809;28;20445;-65
2022/11/16 03:29:05;;;;;;;2.28;1.65;;;15.90;71.90;;;;;;6326888;28;20507;-65
2022/11/16 03:32:20;;;;;;;2.33;1.42;;;15.90;71.70;;;;;;6326471;28;20028;-65
2022/11/16 03:35:25;;;;;;;4.65;1.60;;;15.90;71.80;;;;;;6326796;28;20526;-65
2022/11/16 03:38:27;;;;;;;3.63;1.67;;;15.90;71.90;;;;;;6325515;28;20169;-65
2022/11/16 03:41:30;;;;;;;4.75;1.83;;;15.90;71.90;;;;;;6327257;28;20479;-65
2022/11/16 03:44:31;;;;;;;3.28;1.83;;;15.80;71.70;;;;;;6326512;28;20070;-65
2022/11/16 03:47:32;;;;;;;3.80;1.60;;;15.80;71.90;;;;;;6327304;28;20085;-65
2022/11/16 03:50:33;;;;;;;3.75;1.52;;;15.80;71.90;;;;;;6326106;28;20044;-65
2022/11/16 03:53:36;;;;;;;2.80;1.55;;;15.70;72.00;;;;;;6325721;28;20035;-65
2022/11/16 03:56:36;;;;;;;2.50;1.55;;;15.70;72.10;;;;;;6326186;28;20039;-65
2022/11/16 03:59:37;;;;;;;3.28;1.67;;;15.60;72.10;;;;;;6325909;28;20028;-65
2022/11/16 04:02:38;;;;;;;3.53;1.50;;;15.60;72.10;;;;;;6309090;28;20035;-65
2022/11/16 04:25:52;;;;;;;2.70;1.42;;;15.30;72.30;;;;;;6326245;28;20035;-65
2022/11/16 04:28:53;;;;;;;6.43;1.55;;;15.30;72.30;;;;;;6325078;28;20372;-66
2022/11/16 04:38:33;;;;;;;2.85;1.63;;;15.10;72.50;;;;;;6323925;28;20024;-65
2022/11/16 04:48:19;;;;;;;3.03;1.90;;;15.00;72.50;;;;;;6324390;28;20027;-65
2022/11/16 04:51:22;;;;;;;2.28;1.70;;;14.90;72.80;;;;;;6307947;28;20499;-65
2022/11/16 04:54:23;;;;;;;3.08;1.90;;;14.90;73.10;;;;;;6324501;28;20124;-65
2022/11/16 04:57:23;;;;;;;3.25;2.00;;;14.80;73.20;;;;;;6325119;28;20457;-65
2022/11/16 05:00:25;;;;;;;3.33;1.90;;;14.80;73.20;;;;;;6307698;28;20055;-65
2022/11/16 05:03:26;;;;;;;3.08;1.95;;;14.80;73.30;;;;;;6325523;28;20024;-65
2022/11/16 05:06:27;;;;;;;4.20;1.90;;;14.80;73.20;;;;;;6324058;28;20047;-65
2022/11/16 05:09:28;;;;;;;3.15;2.00;;;14.80;73.20;;;;;;6324079;28;20094;-66
2022/11/16 05:12:30;;;;;;;4.20;2.03;;;14.80;73.20;;;;;;6307331;28;20032;-65
2022/11/16 05:15:34;;;;;;;3.05;2.22;;;14.80;73.30;;;;;;6307922;28;20457;-66
2022/11/16 05:18:35;;;;;;;2.90;1.95;;;14.80;73.30;;;;;;6306628;28;20048;-65
2022/11/16 05:21:37;;;;;;;3.08;2.08;;;14.80;73.30;;;;;;6323979;28;20368;-66
2022/11/16 05:24:38;;;;;;;9.95;2.42;;;14.70;73.20;;;;;;6321406;28;20032;-66
2022/11/16 05:27:40;;;;;;;15.02;4.80;;;14.70;73.30;;;;;;6304998;28;20024;-65
2022/11/16 05:30:44;;;;;;;9.43;3.72;;;14.70;73.30;;;;;;6321302;28;20043;-65
2022/11/16 05:33:45;;;;;;;9.70;4.28;;;14.70;73.40;;;;;;6306684;28;20027;-65
2022/11/16 05:36:48;;;;;;;6.68;3.88;;;14.60;73.50;;;;;;6321367;28;20114;-65
2022/11/16 05:39:49;;;;;;;7.57;2.65;;;14.60;73.50;;;;;;6317022;28;20035;-65
2022/11/16 05:42:51;;;;;;;4.85;2.63;;;14.60;73.60;;;;;;6321992;28;20111;-64
2022/11/16 05:45:54;;;;;;;4.07;2.60;;;14.60;73.70;;;;;;6322407;28;20046;-64
2022/11/16 05:48:55;;;;;;;4.18;2.55;;;14.60;73.80;;;;;;6321987;28;20082;-65
2022/11/16 05:51:57;;;;;;;3.33;2.20;;;14.60;73.70;;;;;;6317976;28;20364;-64
2022/11/16 05:54:58;;;;;;;5.57;2.75;;;14.60;73.60;;;;;;6305167;28;20032;-65
2022/11/16 05:58:00;;;;;;;5.47;3.00;;;14.60;73.50;;;;;;6316668;28;20031;-64
2022/11/16 06:01:01;;;;;;;6.63;2.95;;;14.60;73.50;;;;;;6297712;28;20353;-65
2022/11/16 06:04:02;;;;;;;6.55;2.53;;;14.60;73.40;;;;;;6315408;28;20146;-64
2022/11/16 06:07:05;;;;;;;4.40;2.95;;;14.60;73.40;;;;;;6303365;28;20028;-64
2022/11/16 06:10:09;;;;;;;5.60;2.80;;;14.60;73.30;;;;;;6320888;28;20138;-64
2022/11/16 06:13:10;;;;;;;15.57;3.28;;;14.60;73.30;;;;;;6314880;28;20073;-64
2022/11/16 06:16:12;;;;;;;5.78;3.05;;;14.60;73.30;;;;;;6315967;28;20052;-65
2022/11/16 06:19:13;;;;;;;4.85;2.50;;;14.60;73.30;;;;;;6301020;28;20110;-65
2022/11/16 06:22:15;;;;;;;4.32;2.28;;;14.60;73.20;;;;;;6305199;28;20024;-65
2022/11/16 06:25:17;;;;;;;8.77;2.42;;;14.60;73.20;;;;;;6317860;28;20051;-65
2022/11/16 06:28:18;;;;;;;5.13;2.60;;;14.60;73.20;;;;;;6301112;28;20070;-66
2022/11/16 06:31:20;;;;;;;7.80;4.38;;;14.50;73.10;;;;;;6285968;28;20043;-64
2022/11/16 06:34:20;;;;;;;5.18;3.17;;;14.50;73.10;;;;;;6310164;28;20031;-66
2022/11/16 06:37:22;;;;;;;7.20;3.78;;;14.50;73.20;;;;;;6312562;28;20040;-65
2022/11/16 06:40:23;;;;;;;9.95;4.72;;;14.60;73.40;;;;;;6316962;28;20376;-65
2022/11/16 06:43:25;;;;;;;7.20;3.50;;;14.50;73.30;;;;;;6305653;28;20028;-63
2022/11/16 06:46:26;;;;;;;5.65;2.83;;;14.60;73.40;;;;;;6309578;28;20119;-65
2022/11/16 06:49:29;;;;;;;5.53;3.05;;;14.60;73.40;;;;;;6296225;28;20040;-65
2022/11/16 06:52:34;;;;;;;5.00;2.85;;;14.60;73.40;;;;;;6294589;28;20032;-65
2022/11/16 06:55:35;;;;;;;6.78;3.25;;;14.60;73.30;;;;;;6292680;28;20024;-65
2022/11/16 06:58:37;;;;;;;9.55;3.38;;;14.60;73.20;;;;;;6319653;28;20024;-65
2022/11/16 07:01:39;;;;;;;5.25;3.30;;;14.70;73.20;;;;;;6319736;28;20092;-65
2022/11/16 07:04:45;;;;;;;9.65;4.00;;;14.70;73.10;;;;;;6319974;28;20331;-65
2022/11/16 07:07:46;;;;;;;5.97;3.60;;;14.80;73.00;;;;;;6323019;28;20032;-65
2022/11/16 07:10:47;;;;;;;6.22;3.75;;;14.80;72.90;;;;;;6321875;28;20047;-64
2022/11/16 07:13:48;;;;;;;10.65;3.90;;;14.80;72.80;;;;;;6321946;28;20032;-65
2022/11/16 07:16:49;;;;;;;9.32;4.20;;;14.80;72.80;;;;;;6304916;28;20765;-65
2022/11/16 07:19:50;;;;;;;7.78;4.30;;;14.80;72.90;;;;;;6321582;28;20089;-64
2022/11/16 07:22:51;;;;;;;8.32;3.80;;;14.90;72.80;;;;;;6321632;28;20115;-65
2022/11/16 07:25:52;;;;;;;8.48;4.47;;;14.90;72.60;;;;;;6304487;28;20026;-65
2022/11/16 07:29:04;;;;;;;10.00;4.60;;;15.00;72.60;;;;;;6306279;28;20505;-65
2022/11/16 07:32:07;;;;;;;9.00;4.70;;;15.00;72.50;;;;;;6321636;28;20046;-65
2022/11/16 07:35:26;;;;;;;10.05;5.22;;;15.00;72.40;;;;;;6323002;28;20040;-65
2022/11/16 07:38:28;;;;;;;9.10;4.70;;;15.00;72.40;;;;;;6320757;28;20089;-65
2022/11/16 07:41:29;;;;;;;8.43;4.43;;;15.00;72.50;;;;;;6321419;28;20024;-65
2022/11/16 07:44:56;;;;;;;9.23;4.38;;;15.00;72.50;;;;;;6307261;28;20032;-65
2022/11/16 07:47:57;;;;;;;6.28;3.67;;;14.90;72.30;;;;;;6319968;28;20464;-65
2022/11/16 07:51:33;;;;;;;8.65;3.60;;;14.90;72.30;;;;;;6266640;28;20108;-65
2022/11/16 07:54:49;;;;;;;9.48;3.63;;;14.80;72.30;;;;;;6271680;28;20102;-65
2022/11/16 07:57:50;;;;;;;5.68;3.00;;;14.80;72.40;;;;;;6254984;28;20067;-65
2022/11/16 08:00:52;;;;;;;5.93;3.53;;;14.80;72.50;;;;;;6255131;28;20183;-65
2022/11/16 08:03:53;;;;;;;11.40;3.67;;;14.80;72.40;;;;;;6258100;28;20029;-66
2022/11/16 08:06:54;;;;;;;6.13;3.33;;;14.80;72.30;;;;;;6274176;28;20033;-66
2022/11/16 08:09:56;;;;;;;5.60;3.35;;;14.90;72.40;;;;;;6257683;28;20036;-66
2022/11/16 08:12:57;;;;;;;13.00;2.85;;;14.80;72.20;;;;;;6257521;28;20037;-65
2022/11/16 08:16:01;;;;;;;6.68;3.20;;;14.80;72.10;;;;;;6257302;28;20526;-64
2022/11/16 08:19:03;;;;;;;5.15;3.28;;;14.80;72.00;;;;;;6257406;28;20140;-64
2022/11/16 08:22:05;;;;;;;9.10;3.50;;;14.80;71.80;;;;;;6256585;28;20063;-65
2022/11/16 08:25:08;;;;;;;4.55;2.90;;;14.80;71.80;;;;;;6268270;28;20116;-65
2022/11/16 08:28:09;;;;;;;5.85;3.20;;;14.80;71.90;;;;;;6326075;28;20032;-65
2022/11/16 08:31:16;;;;;;;5.03;2.67;;;14.90;71.90;;;;;;6324981;28;20031;-65
2022/11/16 08:34:20;;;;;;;8.52;2.40;;;15.00;71.80;;;;;;6324727;28;20067;-65
2022/11/16 08:37:26;;;;;;;5.20;2.60;;;15.00;71.50;;;;;;6324571;28;20112;-65
2022/11/16 08:40:28;;;;;;;5.05;3.05;;;15.10;72.10;;;;;;6324131;28;20403;-66
2022/11/16 08:43:29;;;;;;;7.95;4.00;;;15.10;71.10;;;;;;6323628;28;20088;-65
2022/11/16 08:46:33;;;;;;;8.70;2.40;;;15.10;70.90;;;;;;6305926;28;20032;-65
2022/11/16 08:49:43;;;;;;;6.63;2.55;;;15.10;70.60;;;;;;6322465;28;20081;-66
2022/11/16 08:52:44;;;;;;;4.70;2.80;;;15.10;70.70;;;;;;6321499;28;20439;-65
2022/11/16 08:55:45;;;;;;;4.72;2.67;;;15.10;70.70;;;;;;6323641;28;20052;-66
2022/11/16 08:58:46;;;;;;;4.80;2.75;;;15.20;70.70;;;;;;6323262;28;20032;-66
2022/11/16 09:01:48;;;;;;;4.70;2.67;;;15.20;70.50;;;;;;6323901;28;20456;-65
2022/11/16 09:04:53;;;;;;;8.60;2.58;;;15.20;70.40;;;;;;6324733;28;20111;-65
2022/11/16 09:07:54;;;;;;;5.35;2.80;;;15.30;70.40;;;;;;6323621;28;20064;-65
2022/11/16 09:10:54;;;;;;;4.30;2.60;;;15.40;70.00;;;;;;6324165;28;20046;-65
2022/11/16 09:13:56;;;;;;;5.20;2.50;;;15.40;69.70;;;;;;6324518;28;20039;-65
2022/11/16 09:16:57;;;;;;;7.28;2.30;;;15.50;69.60;;;;;;6324669;28;20074;-64
2022/11/16 09:19:57;;;;;;;4.95;2.30;;;15.60;69.60;;;;;;6323648;28;20048;-65
2022/11/16 09:22:58;;;;;;;5.90;2.85;;;15.70;69.10;;;;;;6323190;28;20333;-65
2022/11/16 09:26:04;;;;;;;3.17;2.28;;;15.70;68.90;;;;;;6321924;28;20413;-65
2022/11/16 09:29:05;;;;;;;4.25;2.45;;;15.80;68.90;;;;;;6321330;28;20031;-65
2022/11/16 09:32:06;;;;;;;5.00;2.67;;;15.80;68.80;;;;;;6321941;28;20024;-65
2022/11/16 09:35:07;;;;;;;8.32;3.58;;;15.90;68.50;;;;;;6321256;28;20412;-65
2022/11/16 09:38:08;;;;;;;4.38;2.60;;;15.90;68.40;;;;;;6322091;28;20062;-66
2022/11/16 09:41:34;;;;;;;5.72;2.63;;;16.00;68.40;;;;;;6323261;28;20357;-65
2022/11/16 09:44:58;;;;;;;5.40;3.10;;;16.00;68.20;;;;;;6322861;28;20043;-65
2022/11/16 09:48:04;;;;;;;5.28;3.00;;;16.10;68.10;;;;;;6323154;28;20038;-66
2022/11/16 09:51:11;;;;;;;4.35;2.83;;;16.10;68.10;;;;;;6323826;28;20040;-65
2022/11/16 09:54:15;;;;;;;7.28;3.50;;;16.30;68.00;;;;;;6323218;28;20032;-66
2022/11/16 09:57:21;;;;;;;8.38;3.95;;;16.60;67.60;;;;;;6322874;28;20047;-66
2022/11/16 10:00:22;;;;;;;8.25;4.13;;;16.90;67.00;;;;;;6322471;28;20031;-66
2022/11/16 10:03:25;;;;;;;6.75;3.28;;;17.00;65.90;;;;;;6321500;28;20353;-65
2022/11/16 10:07:08;;;;;;;10.18;4.07;;;17.10;65.30;;;;;;6322098;28;20526;-65
2022/11/16 10:10:28;;;;;;;6.68;3.22;;;17.00;65.10;;;;;;6204329;28;20100;-65
2022/11/16 10:13:53;;;;;;;4.72;3.00;;;17.10;64.90;;;;;;6221903;28;20096;-65
2022/11/16 10:17:05;;;;;;;7.05;3.40;;;17.20;64.60;;;;;;6203357;28;20471;-65
2022/11/16 10:20:40;;;;;;;10.20;3.80;;;17.30;64.30;;;;;;6204198;28;20049;-64
2022/11/16 10:23:49;;;;;;;5.35;3.00;;;17.50;64.30;;;;;;6202217;28;20408;-65
2022/11/16 10:26:55;;;;;;;5.43;3.05;;;17.90;64.10;;;;;;6178498;28;20166;-65
2022/11/16 10:30:13;;;;;;;4.25;2.78;;;18.10;63.20;;;;;;6162023;28;20515;-65
2022/11/16 10:33:19;;;;;;;6.20;3.90;;;18.40;62.10;;;;;;6183445;28;20069;-65
2022/11/16 10:36:26;;;;;;;5.80;3.95;;;18.60;60.80;;;;;;6220258;28;20065;-65
2022/11/16 10:39:27;;;;;;;6.22;3.78;;;18.80;59.90;;;;;;6220080;28;20073;-65
2022/11/16 10:42:35;;;;;;;8.00;4.47;;;19.00;59.80;;;;;;6188589;28;20022;-64
2022/11/16 10:45:42;;;;;;;7.22;3.85;;;19.20;59.40;;;;;;6224840;28;20047;-66
2022/11/16 10:49:06;;;;;;;5.47;2.95;;;19.50;58.60;;;;;;6304711;28;20112;-65
2022/11/16 10:52:07;;;;;;;3.80;2.85;;;19.60;57.40;;;;;;6320197;28;20362;-65
2022/11/16 10:55:13;;;;;;;5.68;2.70;;;19.80;56.90;;;;;;6320464;28;20356;-65
2022/11/16 10:58:15;;;;;;;5.22;3.75;;;19.90;56.80;;;;;;6320507;28;20075;-66
2022/11/16 11:01:32;;;;;;;6.53;3.67;;;20.20;55.80;;;;;;6321819;28;20441;-66
2022/11/16 11:04:33;;;;;;;5.10;3.30;;;20.50;54.90;;;;;;6320351;28;20025;-66
2022/11/16 11:07:38;;;;;;;3.28;2.30;;;20.70;53.80;;;;;;6316655;28;20037;-64
2022/11/16 11:10:41;;;;;;;7.03;2.45;;;21.00;53.10;;;;;;6303250;28;20036;-65
2022/11/16 11:13:41;;;;;;;2.28;1.45;;;21.30;52.00;;;;;;6295773;28;20043;-66
2022/11/16 11:16:42;;;;;;;2.45;1.40;;;21.70;50.60;;;;;;6278433;28;20357;-66
2022/11/16 11:19:43;;;;;;;2.38;1.33;;;21.90;49.90;;;;;;6296642;28;20131;-66
2022/11/16 11:22:55;;;;;;;2.33;1.50;;;22.00;49.30;;;;;;6302795;28;20033;-66
2022/11/16 11:26:00;;;;;;;3.63;1.95;;;22.10;49.10;;;;;;6314319;28;20035;-66
2022/11/16 11:29:04;;;;;;;2.78;1.67;;;22.30;49.10;;;;;;6327121;28;20025;-66
2022/11/16 11:32:12;;;;;;;4.82;1.90;;;22.50;48.50;;;;;;6326838;28;20089;-65
2022/11/16 11:35:25;;;;;;;3.63;1.50;;;22.60;48.10;;;;;;6326498;28;20059;-66
2022/11/16 11:38:26;;;;;;;7.65;2.35;;;22.60;47.90;;;;;;6323899;28;20041;-66
2022/11/16 11:41:36;;;;;;;4.57;1.85;;;22.60;47.60;;;;;;6326276;28;20235;-65
2022/11/16 11:44:49;;;;;;;4.13;2.00;;;22.40;47.60;;;;;;6323848;28;20028;-65
2022/11/16 11:48:15;;;;;;;3.42;1.63;;;22.00;48.10;;;;;;6323516;28;20374;-66
2022/11/16 11:51:23;;;;;;;4.25;2.20;;;21.60;48.80;;;;;;6322870;28;20445;-66
2022/11/16 11:54:32;;;;;;;3.50;1.88;;;21.20;49.80;;;;;;6324282;28;20027;-65
2022/11/16 11:57:39;;;;;;;3.13;1.25;;;20.80;50.20;;;;;;6325438;28;20349;-66
2022/11/16 12:00:57;;;;;;;3.58;1.30;;;20.50;50.70;;;;;;6325989;28;20032;-66
2022/11/16 12:04:07;;;;;;;1.55;1.20;;;20.20;51.20;;;;;;6326373;28;20031;-65
2022/11/16 12:07:07;;;;;;;1.60;1.10;;;19.90;51.80;;;;;;6326105;28;20032;-67
2022/11/16 12:10:32;;;;;;;1.67;0.80;;;19.80;52.10;;;;;;6308305;28;20466;-65
2022/11/16 12:13:33;;;;;;;1.95;1.10;;;19.60;52.30;;;;;;6325313;28;20422;-66
2022/11/16 12:17:10;;;;;;;2.45;1.10;;;19.40;52.70;;;;;;6308189;28;20097;-66
2022/11/16 12:20:27;;;;;;;2.10;1.10;;;19.20;53.10;;;;;;6324961;28;20461;-66
2022/11/16 12:23:39;;;;;;;2.97;1.55;;;19.10;53.30;;;;;;6325734;28;20630;-65
2022/11/16 12:26:58;;;;;;;3.38;1.45;;;18.90;53.70;;;;;;6325871;28;20326;-66
2022/11/16 12:30:19;;;;;;;2.90;1.33;;;18.90;54.10;;;;;;6324559;28;20084;-65
2022/11/16 12:33:32;;;;;;;3.30;1.23;;;18.80;54.30;;;;;;6325844;28;20061;-66
2022/11/16 12:36:55;;;;;;;2.90;1.50;;;18.80;54.40;;;;;;6323778;28;20032;-66
2022/11/16 12:40:14;;;;;;;3.00;1.38;;;18.80;54.50;;;;;;6303703;28;20028;-66
2022/11/16 12:43:35;;;;;;;3.60;1.85;;;18.80;54.60;;;;;;6321660;28;20020;-65
2022/11/16 12:47:06;;;;;;;5.00;1.58;;;18.80;55.20;;;;;;6322236;28;20412;-66
2022/11/16 12:50:24;;;;;;;9.52;3.83;;;18.80;54.70;;;;;;6322906;28;20521;-66
2022/11/16 12:53:44;;;;;;;1.70;1.30;;;18.80;54.40;;;;;;6321450;28;20024;-66
2022/11/16 12:57:00;;;;;;;4.78;1.42;;;18.80;54.40;;;;;;6324885;28;20445;-65
2022/11/16 13:00:10;;;;;;;1.88;1.23;;;18.80;54.30;;;;;;6323639;28;20024;-65
2022/11/16 13:03:18;;;;;;;7.30;1.25;;;18.80;54.30;;;;;;6307021;28;20038;-66
2022/11/16 13:06:25;;;;;;;1.73;1.00;;;18.80;54.00;;;;;;6323521;28;20334;-66
2022/11/16 13:09:34;;;;;;;4.72;1.10;;;18.80;53.80;;;;;;6323051;28;20131;-66
2022/11/16 13:12:37;;;;;;;2.65;1.20;;;18.90;53.40;;;;;;6323150;28;20134;-66
2022/11/16 13:15:40;;;;;;;4.20;1.80;;;18.90;53.00;;;;;;6306258;28;20050;-65
2022/11/16 13:18:41;;;;;;;2.38;0.80;;;18.90;52.70;;;;;;6322759;28;20048;-65
2022/11/16 13:22:01;;;;;;;1.75;0.70;;;18.90;52.60;;;;;;6305277;28;20050;-66
2022/11/16 13:25:15;;;;;;;1.60;0.82;;;18.90;52.30;;;;;;6323135;28;20020;-66
2022/11/16 13:28:23;;;;;;;3.03;0.73;;;18.90;51.60;;;;;;6322140;28;20036;-65
2022/11/16 13:31:42;;;;;;;1.70;0.93;;;18.90;51.40;;;;;;6322354;28;20034;-65
2022/11/16 13:34:43;;;;;;;1.37;0.77;;;18.90;51.30;;;;;;6321603;28;20027;-66
2022/11/16 13:37:49;;;;;;;1.10;0.85;;;18.90;51.20;;;;;;6320058;28;20293;-65
2022/11/16 13:40:50;;;;;;;4.78;1.15;;;18.90;51.30;;;;;;6320624;28;20477;-66
2022/11/16 13:43:51;;;;;;;1.30;0.95;;;18.90;51.40;;;;;;6305396;28;20075;-66
2022/11/16 13:46:58;;;;;;;3.03;1.50;;;18.90;51.60;;;;;;6323770;28;20028;-64
2022/11/16 13:50:05;;;;;;;2.47;1.50;;;19.00;51.30;;;;;;6306023;28;20028;-65
2022/11/16 13:53:13;;;;;;;1.88;0.80;;;19.00;51.40;;;;;;6323198;28;20119;-65
2022/11/16 13:56:15;;;;;;;2.30;0.90;;;18.90;51.20;;;;;;6323409;28;20043;-65
2022/11/16 13:59:26;;;;;;;6.13;1.20;;;18.90;51.30;;;;;;6322997;28;20032;-65
2022/11/16 14:02:27;;;;;;;3.50;1.17;;;18.90;51.40;;;;;;6323442;28;20020;-65
2022/11/16 14:05:39;;;;;;;4.28;1.20;;;18.90;51.30;;;;;;6323575;28;20089;-66
2022/11/16 14:08:44;;;;;;;6.25;1.20;;;19.00;51.30;;;;;;6322809;28;20032;-65
2022/11/16 14:11:45;;;;;;;2.40;1.13;;;18.90;51.10;;;;;;6322895;28;20028;-66
2022/11/16 14:15:03;;;;;;;1.88;0.85;;;18.90;51.00;;;;;;6321800;28;20074;-66
2022/11/16 14:18:10;;;;;;;4.47;0.93;;;18.90;50.90;;;;;;6322579;28;20067;-66
2022/11/16 14:21:33;;;;;;;1.65;1.08;;;18.90;50.70;;;;;;6322653;28;20334;-65
2022/11/16 14:24:39;;;;;;;2.47;0.60;;;18.90;50.80;;;;;;6284789;28;20048;-65
2022/11/16 14:28:13;;;;;;;4.80;1.15;;;18.90;50.50;;;;;;6321190;28;20040;-65
2022/11/16 14:31:23;;;;;;;1.27;0.82;;;18.90;50.30;;;;;;6218804;28;20216;-65
2022/11/16 14:34:44;;;;;;;4.35;0.80;;;18.90;50.20;;;;;;6202842;28;20078;-67
2022/11/16 14:37:59;;;;;;;6.82;1.30;;;18.90;50.10;;;;;;6202504;28;20065;-66
2022/11/16 14:41:03;;;;;;;1.52;0.63;;;18.90;50.10;;;;;;6220592;28;20335;-66
2022/11/16 14:44:04;;;;;;;8.57;0.60;;;18.80;49.80;;;;;;6205168;28;20030;-65
2022/11/16 14:47:25;;;;;;;6.28;1.17;;;18.90;49.50;;;;;;6189105;28;20455;-66
2022/11/16 14:50:26;;;;;;;1.25;0.57;;;18.90;49.40;;;;;;6204320;28;20034;-65
2022/11/16 14:53:28;;;;;;;9.57;1.42;;;18.90;48.70;;;;;;6204793;28;20038;-65
2022/11/16 14:56:29;;;;;;;1.50;0.52;;;18.80;48.20;;;;;;6188557;28;20061;-65
2022/11/16 14:59:31;;;;;;;6.18;0.80;;;18.80;48.50;;;;;;6205170;28;20026;-65
2022/11/16 15:02:33;;;;;;;2.63;1.00;;;18.80;48.40;;;;;;6223922;28;20541;-65
2022/11/16 15:05:35;;;;;;;6.43;1.60;;;18.80;48.60;;;;;;6225452;28;20116;-66
2022/11/16 15:08:48;;;;;;;5.47;1.20;;;18.80;48.90;;;;;;6319565;28;20047;-65
2022/11/16 15:15:09;;;;;;;10.30;1.67;;;18.80;50.10;;;;;;6326926;28;20065;-66
2022/11/16 15:18:16;;;;;;;8.90;1.88;;;18.70;50.70;;;;;;6326354;28;20046;-65
2022/11/16 15:21:22;;;;;;;2.67;1.40;;;18.70;51.20;;;;;;6307025;28;20028;-66
2022/11/16 15:24:31;;;;;;;2.72;1.10;;;18.70;51.60;;;;;;6323262;28;20056;-66
2022/11/16 15:27:42;;;;;;;2.28;1.38;;;18.70;52.70;;;;;;6324079;28;20024;-65
2022/11/16 15:30:53;;;;;;;5.30;1.40;;;18.60;52.40;;;;;;6323972;28;20028;-65
2022/11/16 15:33:54;;;;;;;9.02;1.20;;;18.50;52.70;;;;;;6324153;28;20081;-66
2022/11/16 15:36:55;;;;;;;3.30;1.33;;;18.50;52.90;;;;;;6325858;28;20032;-64
2022/11/16 15:39:58;;;;;;;4.65;2.05;;;18.40;53.00;;;;;;6325809;28;20124;-67
2022/11/16 15:43:02;;;;;;;6.57;1.65;;;18.40;53.20;;;;;;6326095;28;20036;-66
2022/11/16 15:46:06;;;;;;;4.03;1.00;;;18.40;53.50;;;;;;6326699;28;20028;-66
2022/11/16 15:49:32;;;;;;;5.20;1.70;;;18.30;53.80;;;;;;6325586;28;20243;-65
2022/11/16 15:52:44;;;;;;;4.07;1.40;;;18.30;54.20;;;;;;6306967;28;20024;-66
2022/11/16 15:55:48;;;;;;;3.20;1.20;;;18.20;54.30;;;;;;6324683;28;20028;-64
2022/11/16 15:58:51;;;;;;;5.15;1.73;;;18.10;54.30;;;;;;6324569;28;20532;-65
2022/11/16 16:01:52;;;;;;;3.78;1.23;;;18.10;54.60;;;;;;6324729;28;20024;-64
2022/11/16 16:04:53;;;;;;;3.13;1.60;;;18.10;54.90;;;;;;6302677;28;20032;-66
2022/11/16 16:07:58;;;;;;;4.25;2.50;;;18.10;55.20;;;;;;6318737;28;20104;-65
2022/11/16 16:11:18;;;;;;;11.85;2.35;;;18.00;55.50;;;;;;6324103;28;20073;-66
2022/11/16 16:14:25;;;;;;;3.33;1.70;;;18.00;55.60;;;;;;6323509;28;20020;-65
2022/11/16 16:17:28;;;;;;;5.82;1.90;;;17.90;55.80;;;;;;6311250;28;20436;-66
2022/11/16 16:20:31;;;;;;;4.68;2.08;;;17.80;56.20;;;;;;6323348;28;20024;-65
2022/11/16 16:23:32;;;;;;;5.22;2.00;;;17.70;56.50;;;;;;6323157;28;20032;-66
2022/11/16 16:26:33;;;;;;;3.42;1.52;;;17.60;56.40;;;;;;6323430;28;20020;-65
2022/11/16 16:29:34;;;;;;;12.45;3.72;;;17.40;56.40;;;;;;6332141;28;20080;-67
2022/11/16 16:32:36;;;;;;;7.85;1.90;;;17.30;56.50;;;;;;6307523;28;20028;-66
2022/11/16 16:35:37;;;;;;;8.75;1.67;;;17.30;56.60;;;;;;6322679;28;20361;-65
2022/11/16 16:38:38;;;;;;;14.43;1.70;;;17.20;56.70;;;;;;6322642;28;20360;-66
2022/11/16 16:41:40;;;;;;;5.72;2.55;;;17.10;56.70;;;;;;6317270;28;20100;-66
2022/11/16 16:44:43;;;;;;;8.57;3.08;;;17.00;56.70;;;;;;6318648;28;20040;-65
2022/11/16 16:47:44;;;;;;;9.52;2.00;;;16.90;56.80;;;;;;6302771;28;20097;-65
2022/11/16 16:50:46;;;;;;;8.57;1.75;;;16.80;56.80;;;;;;6318370;28;20452;-65